Time,TemperatureF,DewpointF,PressureIn,WindDirection,WindDirectionDegrees,WindSpeedMPH,WindSpeedGustMPH,Humidity,HourlyPrecipIn,Conditions,Clouds,dailyrainin,SoftwareType,DateUTC
2013-03-12 00:01:00,47.7,46.0,30.09,South,191,0.0,4.0,93,0.00,,,0.00,weatherlink.com 1.10,2013-03-12 04:01:00,
2013-03-12 00:16:00,47.5,46.0,30.07,SSW,198,0.0,1.0,93,0.00,,,0.00,weatherlink.com 1.10,2013-03-12 04:16:00,
2013-03-12 00:31:00,47.2,45.0,30.07,South,176,0.0,0.0,93,0.00,,,0.00,weatherlink.com 1.10,2013-03-12 04:31:00,
2013-03-12 00:46:00,47.1,45.0,30.06,South,181,0.0,1.0,93,0.00,,,0.00,weatherlink.com 1.10,2013-03-12 04:46:00,
2013-03-12 01:01:00,47.2,46.0,30.05,South,191,0.0,2.0,94,0.00,,,0.00,weatherlink.com 1.10,2013-03-12 05:01:00,
2013-03-12 01:16:00,47.2,46.0,30.04,South,187,0.0,1.0,94,0.00,,,0.00,weatherlink.com 1.10,2013-03-12 05:16:00,
2013-03-12 01:32:00,47.6,46.0,30.02,SW,215,2.0,4.0,94,0.00,,,0.00,weatherlink.com 1.10,2013-03-12 05:32:00,
2013-03-12 01:47:00,47.9,46.0,30.01,SSE,164,0.0,3.0,94,0.00,,,0.00,weatherlink.com 1.10,2013-03-12 05:47:00,
2013-03-12 02:02:00,48.4,47.0,30.02,SSE,159,3.0,4.0,93,0.00,,,0.00,weatherlink.com 1.10,2013-03-12 06:02:00,
2013-03-12 02:17:00,48.4,47.0,30.01,SSW,197,1.0,4.0,93,0.00,,,0.00,weatherlink.com 1.10,2013-03-12 06:17:00,
2013-03-12 02:32:00,48.3,46.0,30.01,SSE,165,2.0,6.0,92,0.00,,,0.00,weatherlink.com 1.10,2013-03-12 06:32:00,
2013-03-12 02:47:00,48.3,46.0,30.00,South,179,0.0,4.0,92,0.00,,,0.00,weatherlink.com 1.10,2013-03-12 06:47:00,
2013-03-12 03:02:00,48.1,46.0,29.99,South,191,0.0,2.0,92,0.00,,,0.00,weatherlink.com 1.10,2013-03-12 07:02:00,
2013-03-12 03:17:00,47.8,46.0,29.98,South,183,0.0,1.0,92,0.00,,,0.00,weatherlink.com 1.10,2013-03-12 07:17:00,
2013-03-12 03:32:00,47.7,46.0,29.99,South,180,2.0,2.0,92,0.00,,,0.00,weatherlink.com 1.10,2013-03-12 07:32:00,
2013-03-12 04:02:00,48.6,46.0,29.98,SSW,195,1.0,3.0,91,0.00,,,0.00,weatherlink.com 1.10,2013-03-12 08:02:00,
2013-03-12 04:17:00,48.7,46.0,29.98,SSW,204,1.0,3.0,90,0.00,,,0.00,weatherlink.com 1.10,2013-03-12 08:17:00,
2013-03-12 04:32:00,48.8,46.0,29.98,South,186,0.0,6.0,90,0.00,,,0.00,weatherlink.com 1.10,2013-03-12 08:32:00,
2013-03-12 04:47:00,48.8,46.0,29.97,South,181,0.0,4.0,90,0.00,,,0.00,weatherlink.com 1.10,2013-03-12 08:47:00,
2013-03-12 05:02:00,48.8,46.0,29.97,South,190,0.0,1.0,90,0.00,,,0.00,weatherlink.com 1.10,2013-03-12 09:02:00,
2013-03-12 05:17:00,48.8,46.0,29.95,SSW,210,0.0,2.0,90,0.01,,,0.01,weatherlink.com 1.10,2013-03-12 09:17:00,
2013-03-12 05:32:00,48.8,46.0,29.95,SSW,207,1.0,3.0,91,0.02,,,0.02,weatherlink.com 1.10,2013-03-12 09:32:00,
2013-03-12 05:47:00,48.6,46.0,29.94,SSW,210,1.0,2.0,92,0.04,,,0.04,weatherlink.com 1.10,2013-03-12 09:47:00,
2013-03-12 06:02:00,48.6,46.0,29.94,SSW,211,0.0,3.0,92,0.04,,,0.04,weatherlink.com 1.10,2013-03-12 10:02:00,
2013-03-12 06:17:00,48.7,47.0,29.95,South,191,0.0,3.0,92,0.04,,,0.05,weatherlink.com 1.10,2013-03-12 10:17:00,
2013-03-12 06:32:00,48.7,47.0,29.95,South,184,1.0,2.0,92,0.04,,,0.06,weatherlink.com 1.10,2013-03-12 10:32:00,
2013-03-12 06:47:00,48.7,47.0,29.95,South,186,0.0,2.0,93,0.03,,,0.07,weatherlink.com 1.10,2013-03-12 10:47:00,
2013-03-12 07:02:00,48.3,46.0,29.94,SW,231,0.0,4.0,93,0.04,,,0.08,weatherlink.com 1.10,2013-03-12 11:02:00,
2013-03-12 07:17:00,48.1,46.0,29.94,South,179,1.0,1.0,93,0.04,,,0.09,weatherlink.com 1.10,2013-03-12 11:17:00,
2013-03-12 07:32:00,48.0,46.0,29.94,SSW,195,0.0,1.0,94,0.04,,,0.10,weatherlink.com 1.10,2013-03-12 11:32:00,
2013-03-12 07:47:00,48.1,47.0,29.93,SSW,195,0.0,2.0,94,0.04,,,0.11,weatherlink.com 1.10,2013-03-12 11:47:00,
2013-03-12 08:02:00,48.3,47.0,29.93,SW,217,1.0,2.0,94,0.04,,,0.12,weatherlink.com 1.10,2013-03-12 12:02:00,
2013-03-12 08:17:00,48.2,47.0,29.93,SSW,200,2.0,3.0,94,0.03,,,0.12,weatherlink.com 1.10,2013-03-12 12:17:00,
2013-03-12 08:32:00,48.3,47.0,29.93,SSW,198,0.0,1.0,94,0.03,,,0.13,weatherlink.com 1.10,2013-03-12 12:32:00,
2013-03-12 08:47:00,48.7,47.0,29.92,South,187,0.0,1.0,95,0.03,,,0.14,weatherlink.com 1.10,2013-03-12 12:47:00,
2013-03-12 09:02:00,49.2,48.0,29.91,SSW,198,0.0,2.0,95,0.03,,,0.15,weatherlink.com 1.10,2013-03-12 13:02:00,
2013-03-12 09:17:00,50.8,50.0,29.91,South,177,2.0,4.0,95,0.03,,,0.15,weatherlink.com 1.10,2013-03-12 13:17:00,
2013-03-12 09:32:00,51.6,50.0,29.91,SSE,161,4.0,6.0,94,0.03,,,0.16,weatherlink.com 1.10,2013-03-12 13:32:00,
2013-03-12 09:47:00,51.9,50.0,29.90,South,191,4.0,6.0,94,0.02,,,0.16,weatherlink.com 1.10,2013-03-12 13:47:00,
2013-03-12 10:02:00,52.1,51.0,29.89,SSW,197,3.0,5.0,94,0.02,,,0.17,weatherlink.com 1.10,2013-03-12 14:02:00,
2013-03-12 10:17:00,51.6,50.0,29.89,South,187,0.0,3.0,93,0.03,,,0.18,weatherlink.com 1.10,2013-03-12 14:17:00,
2013-03-12 10:32:00,50.6,49.0,29.88,SSW,211,2.0,2.0,93,0.03,,,0.19,weatherlink.com 1.10,2013-03-12 14:32:00,
2013-03-12 10:47:00,50.3,49.0,29.88,SW,224,1.0,2.0,94,0.06,,,0.22,weatherlink.com 1.10,2013-03-12 14:47:00,
2013-03-12 11:03:00,50.1,49.0,29.87,SSW,198,0.0,3.0,95,0.08,,,0.25,weatherlink.com 1.10,2013-03-12 15:03:00,
2013-03-12 11:18:00,49.9,49.0,29.86,SSW,196,0.0,2.0,95,0.09,,,0.27,weatherlink.com 1.10,2013-03-12 15:18:00,
2013-03-12 11:33:00,49.8,49.0,29.85,SSW,210,0.0,4.0,95,0.11,,,0.30,weatherlink.com 1.10,2013-03-12 15:33:00,
2013-03-12 11:48:00,50.0,49.0,29.84,SW,217,1.0,5.0,96,0.10,,,0.32,weatherlink.com 1.10,2013-03-12 15:48:00,
2013-03-12 12:03:00,50.2,49.0,29.83,SSW,200,1.0,4.0,96,0.08,,,0.33,weatherlink.com 1.10,2013-03-12 16:03:00,
2013-03-12 12:18:00,50.0,49.0,29.82,SW,225,2.0,7.0,95,0.07,,,0.34,weatherlink.com 1.10,2013-03-12 16:18:00,
2013-03-12 12:33:00,49.5,48.0,29.82,SW,221,3.0,5.0,95,0.06,,,0.36,weatherlink.com 1.10,2013-03-12 16:33:00,
2013-03-12 12:48:00,49.2,48.0,29.81,South,174,4.0,8.0,95,0.06,,,0.38,weatherlink.com 1.10,2013-03-12 16:48:00,
2013-03-12 13:03:00,49.2,48.0,29.80,South,172,2.0,6.0,95,0.07,,,0.40,weatherlink.com 1.10,2013-03-12 17:03:00,
2013-03-12 13:18:00,49.7,49.0,29.79,SSW,194,5.0,8.0,96,0.08,,,0.42,weatherlink.com 1.10,2013-03-12 17:18:00,
2013-03-12 13:33:00,49.9,49.0,29.77,SSE,162,2.0,9.0,96,0.08,,,0.44,weatherlink.com 1.10,2013-03-12 17:33:00,
2013-03-12 13:48:00,49.8,49.0,29.76,SW,214,6.0,6.0,96,0.11,,,0.49,weatherlink.com 1.10,2013-03-12 17:48:00,
2013-03-12 14:03:00,50.1,49.0,29.75,SW,214,1.0,6.0,96,0.12,,,0.52,weatherlink.com 1.10,2013-03-12 18:03:00,
2013-03-12 14:18:00,50.1,49.0,29.73,SSW,212,3.0,7.0,96,0.12,,,0.54,weatherlink.com 1.10,2013-03-12 18:18:00,
2013-03-12 14:33:00,49.9,49.0,29.71,SSW,193,2.0,6.0,96,0.10,,,0.55,weatherlink.com 1.10,2013-03-12 18:33:00,
2013-03-12 14:48:00,49.7,49.0,29.71,SSW,210,1.0,10.0,96,0.07,,,0.56,weatherlink.com 1.10,2013-03-12 18:48:00,
2013-03-12 15:03:00,50.4,50.0,29.70,South,186,4.0,7.0,97,0.06,,,0.58,weatherlink.com 1.10,2013-03-12 19:03:00,
2013-03-12 15:18:00,50.6,50.0,29.70,SSW,207,3.0,10.0,96,0.11,,,0.65,weatherlink.com 1.10,2013-03-12 19:18:00,
2013-03-12 15:33:00,50.3,49.0,29.69,South,187,0.0,7.0,96,0.23,,,0.78,weatherlink.com 1.10,2013-03-12 19:33:00,
2013-03-12 15:48:00,49.9,49.0,29.68,SSW,208,0.0,3.0,96,0.36,,,0.92,weatherlink.com 1.10,2013-03-12 19:48:00,
2013-03-12 16:03:00,49.8,49.0,29.67,SW,221,1.0,2.0,97,0.37,,,0.95,weatherlink.com 1.10,2013-03-12 20:03:00,
2013-03-12 16:18:00,51.3,51.0,29.66,South,174,1.0,2.0,97,0.30,,,0.95,weatherlink.com 1.10,2013-03-12 20:18:00,
2013-03-12 16:33:00,53.2,53.0,29.66,South,176,1.0,6.0,98,0.20,,,0.98,weatherlink.com 1.10,2013-03-12 20:33:00,
2013-03-12 16:48:00,54.0,54.0,29.66,SSE,167,3.0,7.0,98,0.06,,,0.98,weatherlink.com 1.10,2013-03-12 20:48:00,
2013-03-12 17:03:00,54.4,54.0,29.65,SSW,200,1.0,5.0,98,0.05,,,1.00,weatherlink.com 1.10,2013-03-12 21:03:00,
2013-03-12 17:18:00,54.8,54.0,29.66,East,90,1.0,2.0,98,0.09,,,1.04,weatherlink.com 1.10,2013-03-12 21:18:00,
2013-03-12 17:33:00,55.9,55.0,29.66,SSE,150,0.0,0.0,98,0.06,,,1.04,weatherlink.com 1.10,2013-03-12 21:33:00,
2013-03-12 17:49:00,56.7,56.0,29.67,SE,139,2.0,3.0,98,0.05,,,1.04,weatherlink.com 1.10,2013-03-12 21:49:00,
2013-03-12 18:04:00,57.0,57.0,29.68,South,169,2.0,4.0,98,0.04,,,1.04,weatherlink.com 1.10,2013-03-12 22:04:00,
2013-03-12 18:19:00,56.9,56.0,29.69,South,188,1.0,5.0,97,0.00,,,1.04,weatherlink.com 1.10,2013-03-12 22:19:00,
2013-03-12 18:34:00,56.7,55.0,29.71,NE,36,2.0,7.0,95,0.00,,,1.04,weatherlink.com 1.10,2013-03-12 22:34:00,
2013-03-12 18:49:00,55.3,52.0,29.72,ENE,64,6.0,12.0,88,0.00,,,1.04,weatherlink.com 1.10,2013-03-12 22:49:00,
2013-03-12 19:04:00,53.9,49.0,29.74,NNW,337,1.0,10.0,83,0.00,,,1.04,weatherlink.com 1.10,2013-03-12 23:04:00,
2013-03-12 19:19:00,53.1,48.0,29.75,North,353,2.0,9.0,83,0.00,,,1.04,weatherlink.com 1.10,2013-03-12 23:19:00,
2013-03-12 19:34:00,52.6,48.0,29.75,NNW,328,0.0,6.0,84,0.00,,,1.04,weatherlink.com 1.10,2013-03-12 23:34:00,
2013-03-12 19:49:00,52.2,48.0,29.76,NE,49,0.0,5.0,85,0.00,,,1.04,weatherlink.com 1.10,2013-03-12 23:49:00,
2013-03-12 20:04:00,51.8,47.0,29.77,NE,44,1.0,6.0,83,0.00,,,1.04,weatherlink.com 1.10,2013-03-13 00:04:00,
2013-03-12 20:19:00,51.5,47.0,29.78,ENE,63,5.0,6.0,83,0.00,,,1.04,weatherlink.com 1.10,2013-03-13 00:19:00,
2013-03-12 20:34:00,51.0,45.0,29.79,NNW,330,2.0,7.0,81,0.00,,,1.04,weatherlink.com 1.10,2013-03-13 00:34:00,
2013-03-12 20:49:00,50.3,44.0,29.80,North,8,3.0,9.0,80,0.00,,,1.04,weatherlink.com 1.10,2013-03-13 00:49:00,
2013-03-12 21:04:00,49.3,43.0,29.80,East,90,2.0,9.0,79,0.00,,,1.04,weatherlink.com 1.10,2013-03-13 01:04:00,
2013-03-12 21:19:00,48.3,42.0,29.81,NNE,27,4.0,11.0,79,0.00,,,1.04,weatherlink.com 1.10,2013-03-13 01:19:00,
2013-03-12 21:34:00,47.6,41.0,29.82,NNW,328,4.0,9.0,79,0.00,,,1.04,weatherlink.com 1.10,2013-03-13 01:34:00,
2013-03-12 21:49:00,47.4,41.0,29.82,ENE,65,7.0,10.0,78,0.00,,,1.04,weatherlink.com 1.10,2013-03-13 01:49:00,
2013-03-12 22:04:00,47.2,41.0,29.82,NNW,328,6.0,8.0,78,0.00,,,1.04,weatherlink.com 1.10,2013-03-13 02:04:00,
2013-03-12 22:19:00,46.6,40.0,29.83,NNW,346,5.0,7.0,77,0.00,,,1.04,weatherlink.com 1.10,2013-03-13 02:19:00,
2013-03-12 22:34:00,46.0,40.0,29.83,NNW,330,2.0,7.0,78,0.00,,,1.04,weatherlink.com 1.10,2013-03-13 02:34:00,
2013-03-12 22:49:00,45.6,39.0,29.83,North,350,6.0,8.0,79,0.00,,,1.04,weatherlink.com 1.10,2013-03-13 02:49:00,
2013-03-12 23:04:00,45.2,39.0,29.84,North,355,4.0,7.0,79,0.00,,,1.04,weatherlink.com 1.10,2013-03-13 03:04:00,
2013-03-12 23:19:00,44.7,39.0,29.83,NW,321,3.0,7.0,79,0.00,,,1.04,weatherlink.com 1.10,2013-03-13 03:19:00,
2013-03-12 23:34:00,44.4,38.0,29.83,WNW,297,4.0,10.0,79,0.00,,,1.04,weatherlink.com 1.10,2013-03-13 03:34:00,
2013-03-12 23:49:00,44.0,38.0,29.83,NNW,342,2.0,7.0,79,0.00,,,1.04,weatherlink.com 1.10,2013-03-13 03:49:00,